sensor_id;sensor_type;location;lat;lon;timestamp;P1;durP1;ratioP1;P2;durP2;ratioP2
19436;SDS011;9854;50.968;4.168;2023-01-28T00:01:49;18.80;;;17.10;;
19436;SDS011;9854;50.968;4.168;2023-01-28T00:04:14;17.83;;;16.23;;
19436;SDS011;9854;50.968;4.168;2023-01-28T00:06:40;18.20;;;16.50;;
19436;SDS011;9854;50.968;4.168;2023-01-28T00:09:06;18.27;;;16.57;;
19436;SDS011;9854;50.968;4.168;2023-01-28T00:11:35;18.87;;;17.17;;
19436;SDS011;9854;50.968;4.168;2023-01-28T00:14:01;18.03;;;16.43;;
19436;SDS011;9854;50.968;4.168;2023-01-28T00:16:28;17.47;;;15.87;;
19436;SDS011;9854;50.968;4.168;2023-01-28T00:18:54;18.87;;;17.13;;
19436;SDS011;9854;50.968;4.168;2023-01-28T00:21:20;18.23;;;16.63;;
19436;SDS011;9854;50.968;4.168;2023-01-28T00:23:47;18.77;;;17.17;;
19436;SDS011;9854;50.968;4.168;2023-01-28T00:26:16;18.83;;;16.97;;
19436;SDS011;9854;50.968;4.168;2023-01-28T00:28:42;18.63;;;17.03;;
19436;SDS011;9854;50.968;4.168;2023-01-28T00:31:09;17.70;;;16.17;;
19436;SDS011;9854;50.968;4.168;2023-01-28T00:33:35;16.30;;;15.00;;
19436;SDS011;9854;50.968;4.168;2023-01-28T00:36:02;18.17;;;16.57;;
19436;SDS011;9854;50.968;4.168;2023-01-28T00:38:30;17.30;;;15.70;;
19436;SDS011;9854;50.968;4.168;2023-01-28T00:41:05;18.70;;;16.93;;
19436;SDS011;9854;50.968;4.168;2023-01-28T00:43:36;16.77;;;15.37;;
19436;SDS011;9854;50.968;4.168;2023-01-28T00:46:02;16.97;;;15.57;;
19436;SDS011;9854;50.968;4.168;2023-01-28T00:48:28;15.90;;;14.60;;
19436;SDS011;9854;50.968;4.168;2023-01-28T00:50:54;16.20;;;14.87;;
19436;SDS011;9854;50.968;4.168;2023-01-28T00:53:21;16.87;;;15.43;;
19436;SDS011;9854;50.968;4.168;2023-01-28T00:55:49;16.70;;;15.20;;
19436;SDS011;9854;50.968;4.168;2023-01-28T00:58:15;17.20;;;15.70;;
19436;SDS011;9854;50.968;4.168;2023-01-28T01:00:41;17.83;;;16.33;;
19436;SDS011;9854;50.968;4.168;2023-01-28T01:03:09;16.70;;;15.30;;
19436;SDS011;9854;50.968;4.168;2023-01-28T01:05:35;16.73;;;15.33;;
19436;SDS011;9854;50.968;4.168;2023-01-28T01:08:01;15.90;;;14.60;;
19436;SDS011;9854;50.968;4.168;2023-01-28T01:10:27;15.10;;;13.90;;
19436;SDS011;9854;50.968;4.168;2023-01-28T01:12:52;15.43;;;14.20;;
19436;SDS011;9854;50.968;4.168;2023-01-28T01:15:19;14.73;;;13.57;;
19436;SDS011;9854;50.968;4.168;2023-01-28T01:17:46;14.63;;;13.47;;
19436;SDS011;9854;50.968;4.168;2023-01-28T01:20:14;14.83;;;13.63;;
19436;SDS011;9854;50.968;4.168;2023-01-28T01:22:42;15.10;;;13.90;;
19436;SDS011;9854;50.968;4.168;2023-01-28T01:25:08;16.00;;;14.70;;
19436;SDS011;9854;50.968;4.168;2023-01-28T01:27:34;15.50;;;14.20;;
19436;SDS011;9854;50.968;4.168;2023-01-28T01:30:00;16.40;;;14.93;;
19436;SDS011;9854;50.968;4.168;2023-01-28T01:32:29;17.10;;;15.60;;
19436;SDS011;9854;50.968;4.168;2023-01-28T01:34:55;16.30;;;14.90;;
19436;SDS011;9854;50.968;4.168;2023-01-28T01:37:21;15.90;;;14.60;;
19436;SDS011;9854;50.968;4.168;2023-01-28T01:39:47;16.27;;;14.90;;
19436;SDS011;9854;50.968;4.168;2023-01-28T01:42:13;15.47;;;14.07;;
19436;SDS011;9854;50.968;4.168;2023-01-28T01:47:26;16.37;;;14.90;;
19436;SDS011;9854;50.968;4.168;2023-01-28T01:52:54;16.10;;;14.80;;
19436;SDS011;9854;50.968;4.168;2023-01-28T01:55:24;15.27;;;13.87;;
19436;SDS011;9854;50.968;4.168;2023-01-28T01:57:54;15.03;;;13.73;;
19436;SDS011;9854;50.968;4.168;2023-01-28T02:00:22;14.50;;;13.20;;
19436;SDS011;9854;50.968;4.168;2023-01-28T02:02:48;13.80;;;12.67;;
19436;SDS011;9854;50.968;4.168;2023-01-28T02:05:16;14.43;;;13.23;;
19436;SDS011;9854;50.968;4.168;2023-01-28T02:07:44;14.10;;;13.00;;
19436;SDS011;9854;50.968;4.168;2023-01-28T02:10:12;13.60;;;12.43;;
19436;SDS011;9854;50.968;4.168;2023-01-28T02:12:39;13.30;;;12.27;;
19436;SDS011;9854;50.968;4.168;2023-01-28T02:15:10;13.50;;;12.50;;
19436;SDS011;9854;50.968;4.168;2023-01-28T02:17:38;14.50;;;13.30;;
19436;SDS011;9854;50.968;4.168;2023-01-28T02:20:06;14.57;;;13.37;;
19436;SDS011;9854;50.968;4.168;2023-01-28T02:28:21;14.33;;;13.13;;
19436;SDS011;9854;50.968;4.168;2023-01-28T02:34:01;14.67;;;13.30;;
19436;SDS011;9854;50.968;4.168;2023-01-28T02:39:46;13.60;;;12.50;;
19436;SDS011;9854;50.968;4.168;2023-01-28T02:42:27;14.27;;;13.10;;
19436;SDS011;9854;50.968;4.168;2023-01-28T02:44:55;14.20;;;12.97;;
19436;SDS011;9854;50.968;4.168;2023-01-28T02:47:21;14.20;;;13.00;;
19436;SDS011;9854;50.968;4.168;2023-01-28T02:50:12;14.73;;;13.40;;
19436;SDS011;9854;50.968;4.168;2023-01-28T02:53:03;15.10;;;13.83;;
19436;SDS011;9854;50.968;4.168;2023-01-28T02:59:02;14.30;;;13.10;;
19436;SDS011;9854;50.968;4.168;2023-01-28T03:01:54;14.10;;;12.90;;
19436;SDS011;9854;50.968;4.168;2023-01-28T03:04:29;13.43;;;12.33;;
19436;SDS011;9854;50.968;4.168;2023-01-28T03:07:00;14.27;;;13.07;;
19436;SDS011;9854;50.968;4.168;2023-01-28T03:09:29;14.17;;;12.97;;
19436;SDS011;9854;50.968;4.168;2023-01-28T03:14:55;14.40;;;13.20;;
19436;SDS011;9854;50.968;4.168;2023-01-28T03:17:47;14.50;;;13.20;;
19436;SDS011;9854;50.968;4.168;2023-01-28T03:20:38;13.93;;;12.83;;
19436;SDS011;9854;50.968;4.168;2023-01-28T03:23:31;14.87;;;13.67;;
19436;SDS011;9854;50.968;4.168;2023-01-28T03:26:20;14.03;;;12.90;;
19436;SDS011;9854;50.968;4.168;2023-01-28T03:29:08;13.97;;;12.77;;
19436;SDS011;9854;50.968;4.168;2023-01-28T03:31:55;13.70;;;12.50;;
19436;SDS011;9854;50.968;4.168;2023-01-28T03:34:41;13.43;;;12.33;;
19436;SDS011;9854;50.968;4.168;2023-01-28T03:37:26;14.67;;;13.27;;
19436;SDS011;9854;50.968;4.168;2023-01-28T03:39:52;13.13;;;12.03;;
19436;SDS011;9854;50.968;4.168;2023-01-28T03:42:21;13.80;;;12.60;;
19436;SDS011;9854;50.968;4.168;2023-01-28T03:44:47;14.10;;;12.90;;
19436;SDS011;9854;50.968;4.168;2023-01-28T03:47:13;13.50;;;12.40;;
19436;SDS011;9854;50.968;4.168;2023-01-28T03:49:40;14.03;;;12.80;;
19436;SDS011;9854;50.968;4.168;2023-01-28T03:52:08;13.17;;;12.17;;
19436;SDS011;9854;50.968;4.168;2023-01-28T03:54:34;13.43;;;12.33;;
19436;SDS011;9854;50.968;4.168;2023-01-28T03:57:00;12.93;;;11.93;;
19436;SDS011;9854;50.968;4.168;2023-01-28T03:59:25;13.90;;;12.70;;
19436;SDS011;9854;50.968;4.168;2023-01-28T04:01:51;13.20;;;12.10;;
19436;SDS011;9854;50.968;4.168;2023-01-28T04:04:17;13.60;;;12.50;;
19436;SDS011;9854;50.968;4.168;2023-01-28T04:06:51;13.20;;;12.10;;
19436;SDS011;9854;50.968;4.168;2023-01-28T04:09:21;13.30;;;12.30;;
19436;SDS011;9854;50.968;4.168;2023-01-28T04:11:47;12.57;;;11.57;;
19436;SDS011;9854;50.968;4.168;2023-01-28T04:14:15;13.67;;;12.57;;
19436;SDS011;9854;50.968;4.168;2023-01-28T04:16:41;12.77;;;11.77;;
19436;SDS011;9854;50.968;4.168;2023-01-28T04:19:10;13.17;;;12.13;;
19436;SDS011;9854;50.968;4.168;2023-01-28T04:21:39;13.40;;;12.30;;
19436;SDS011;9854;50.968;4.168;2023-01-28T04:24:05;13.07;;;11.87;;
19436;SDS011;9854;50.968;4.168;2023-01-28T04:26:31;13.33;;;12.23;;
19436;SDS011;9854;50.968;4.168;2023-01-28T04:28:56;14.43;;;13.13;;
19436;SDS011;9854;50.968;4.168;2023-01-28T04:31:22;13.67;;;12.50;;
19436;SDS011;9854;50.968;4.168;2023-01-28T04:33:48;14.47;;;13.20;;
19436;SDS011;9854;50.968;4.168;2023-01-28T04:36:14;14.20;;;13.00;;
19436;SDS011;9854;50.968;4.168;2023-01-28T04:38:40;14.87;;;13.57;;
19436;SDS011;9854;50.968;4.168;2023-01-28T04:41:06;14.73;;;13.53;;
19436;SDS011;9854;50.968;4.168;2023-01-28T04:43:31;15.63;;;14.17;;
19436;SDS011;9854;50.968;4.168;2023-01-28T04:45:57;14.27;;;13.07;;
19436;SDS011;9854;50.968;4.168;2023-01-28T04:48:22;15.37;;;14.00;;
19436;SDS011;9854;50.968;4.168;2023-01-28T04:50:48;15.67;;;14.30;;
19436;SDS011;9854;50.968;4.168;2023-01-28T04:53:14;15.20;;;13.90;;
19436;SDS011;9854;50.968;4.168;2023-01-28T04:55:39;15.83;;;14.33;;
19436;SDS011;9854;50.968;4.168;2023-01-28T04:58:05;16.33;;;14.77;;
19436;SDS011;9854;50.968;4.168;2023-01-28T05:00:31;16.00;;;14.40;;
19436;SDS011;9854;50.968;4.168;2023-01-28T05:02:57;15.83;;;14.47;;
19436;SDS011;9854;50.968;4.168;2023-01-28T05:05:23;15.43;;;14.03;;
19436;SDS011;9854;50.968;4.168;2023-01-28T05:07:55;14.83;;;13.50;;
19436;SDS011;9854;50.968;4.168;2023-01-28T05:10:22;14.47;;;13.17;;
19436;SDS011;9854;50.968;4.168;2023-01-28T05:12:48;15.10;;;13.83;;
19436;SDS011;9854;50.968;4.168;2023-01-28T05:15:14;15.80;;;14.27;;
19436;SDS011;9854;50.968;4.168;2023-01-28T05:17:41;16.27;;;14.90;;
19436;SDS011;9854;50.968;4.168;2023-01-28T05:20:10;15.00;;;13.67;;
19436;SDS011;9854;50.968;4.168;2023-01-28T05:22:37;15.50;;;14.13;;
19436;SDS011;9854;50.968;4.168;2023-01-28T05:25:03;15.57;;;14.27;;
19436;SDS011;9854;50.968;4.168;2023-01-28T05:27:30;16.13;;;14.73;;
19436;SDS011;9854;50.968;4.168;2023-01-28T05:29:56;16.20;;;14.57;;
19436;SDS011;9854;50.968;4.168;2023-01-28T05:32:23;15.33;;;13.57;;
19436;SDS011;9854;50.968;4.168;2023-01-28T05:34:49;16.57;;;14.97;;
19436;SDS011;9854;50.968;4.168;2023-01-28T05:37:15;16.47;;;14.90;;
19436;SDS011;9854;50.968;4.168;2023-01-28T05:39:41;17.37;;;15.77;;
19436;SDS011;9854;50.968;4.168;2023-01-28T05:42:06;15.87;;;14.47;;
19436;SDS011;9854;50.968;4.168;2023-01-28T05:44:33;16.37;;;14.87;;
19436;SDS011;9854;50.968;4.168;2023-01-28T05:47:00;18.23;;;16.53;;
19436;SDS011;9854;50.968;4.168;2023-01-28T05:49:26;17.70;;;16.17;;
19436;SDS011;9854;50.968;4.168;2023-01-28T05:51:51;17.83;;;16.23;;
19436;SDS011;9854;50.968;4.168;2023-01-28T05:54:17;16.90;;;15.40;;
19436;SDS011;9854;50.968;4.168;2023-01-28T05:56:43;16.37;;;14.87;;
19436;SDS011;9854;50.968;4.168;2023-01-28T05:59:09;15.17;;;13.87;;
19436;SDS011;9854;50.968;4.168;2023-01-28T06:01:35;14.80;;;13.50;;
19436;SDS011;9854;50.968;4.168;2023-01-28T06:04:01;13.97;;;12.67;;
19436;SDS011;9854;50.968;4.168;2023-01-28T06:06:28;15.80;;;14.37;;
19436;SDS011;9854;50.968;4.168;2023-01-28T06:08:53;16.13;;;14.73;;
19436;SDS011;9854;50.968;4.168;2023-01-28T06:11:19;16.73;;;15.13;;
19436;SDS011;9854;50.968;4.168;2023-01-28T06:13:44;17.43;;;15.73;;
19436;SDS011;9854;50.968;4.168;2023-01-28T06:16:10;17.17;;;15.40;;
19436;SDS011;9854;50.968;4.168;2023-01-28T06:18:36;17.93;;;15.70;;
19436;SDS011;9854;50.968;4.168;2023-01-28T06:21:01;18.50;;;16.70;;
19436;SDS011;9854;50.968;4.168;2023-01-28T06:23:27;18.57;;;16.47;;
19436;SDS011;9854;50.968;4.168;2023-01-28T06:25:53;17.40;;;15.70;;
19436;SDS011;9854;50.968;4.168;2023-01-28T06:28:23;18.93;;;16.93;;
19436;SDS011;9854;50.968;4.168;2023-01-28T06:30:49;18.50;;;16.70;;
19436;SDS011;9854;50.968;4.168;2023-01-28T06:33:18;20.50;;;18.43;;
19436;SDS011;9854;50.968;4.168;2023-01-28T06:35:44;20.10;;;18.07;;
19436;SDS011;9854;50.968;4.168;2023-01-28T06:38:10;20.87;;;18.67;;
19436;SDS011;9854;50.968;4.168;2023-01-28T06:40:37;23.43;;;21.00;;
19436;SDS011;9854;50.968;4.168;2023-01-28T06:43:03;27.37;;;22.47;;
19436;SDS011;9854;50.968;4.168;2023-01-28T06:45:29;25.93;;;22.00;;
19436;SDS011;9854;50.968;4.168;2023-01-28T06:47:55;27.63;;;21.73;;
19436;SDS011;9854;50.968;4.168;2023-01-28T06:50:21;27.17;;;21.47;;
19436;SDS011;9854;50.968;4.168;2023-01-28T06:52:47;27.93;;;22.80;;
19436;SDS011;9854;50.968;4.168;2023-01-28T06:55:12;28.43;;;22.87;;
19436;SDS011;9854;50.968;4.168;2023-01-28T06:57:38;24.10;;;20.57;;
19436;SDS011;9854;50.968;4.168;2023-01-28T07:00:06;23.23;;;20.80;;
19436;SDS011;9854;50.968;4.168;2023-01-28T07:02:34;22.88;;;20.77;;
19436;SDS011;9854;50.968;4.168;2023-01-28T07:05:00;22.53;;;20.43;;
19436;SDS011;9854;50.968;4.168;2023-01-28T07:07:26;25.20;;;22.67;;
19436;SDS011;9854;50.968;4.168;2023-01-28T07:09:52;26.07;;;23.30;;
19436;SDS011;9854;50.968;4.168;2023-01-28T07:12:17;27.75;;;25.05;;
19436;SDS011;9854;50.968;4.168;2023-01-28T07:14:43;27.33;;;24.50;;
19436;SDS011;9854;50.968;4.168;2023-01-28T07:17:09;26.87;;;24.27;;
19436;SDS011;9854;50.968;4.168;2023-01-28T07:19:34;28.23;;;25.42;;
19436;SDS011;9854;50.968;4.168;2023-01-28T07:22:00;26.63;;;23.93;;
19436;SDS011;9854;50.968;4.168;2023-01-28T07:24:27;27.70;;;25.00;;
19436;SDS011;9854;50.968;4.168;2023-01-28T07:26:53;27.47;;;24.77;;
19436;SDS011;9854;50.968;4.168;2023-01-28T07:29:19;28.90;;;25.90;;
19436;SDS011;9854;50.968;4.168;2023-01-28T07:31:45;30.00;;;26.80;;
19436;SDS011;9854;50.968;4.168;2023-01-28T07:34:11;27.57;;;24.67;;
19436;SDS011;9854;50.968;4.168;2023-01-28T07:36:36;30.03;;;27.13;;
19436;SDS011;9854;50.968;4.168;2023-01-28T07:39:02;30.30;;;27.20;;
19436;SDS011;9854;50.968;4.168;2023-01-28T07:41:28;28.80;;;25.93;;
19436;SDS011;9854;50.968;4.168;2023-01-28T07:43:54;29.20;;;26.00;;
19436;SDS011;9854;50.968;4.168;2023-01-28T07:46:20;28.80;;;25.80;;
19436;SDS011;9854;50.968;4.168;2023-01-28T07:48:46;28.80;;;25.93;;
19436;SDS011;9854;50.968;4.168;2023-01-28T07:51:11;29.37;;;26.43;;
19436;SDS011;9854;50.968;4.168;2023-01-28T07:53:37;29.73;;;26.63;;
19436;SDS011;9854;50.968;4.168;2023-01-28T07:56:03;31.30;;;27.97;;
19436;SDS011;9854;50.968;4.168;2023-01-28T07:58:30;31.47;;;27.03;;
19436;SDS011;9854;50.968;4.168;2023-01-28T08:00:58;31.30;;;27.10;;
19436;SDS011;9854;50.968;4.168;2023-01-28T08:03:25;29.25;;;26.38;;
19436;SDS011;9854;50.968;4.168;2023-01-28T08:05:52;27.80;;;24.90;;
19436;SDS011;9854;50.968;4.168;2023-01-28T08:08:19;27.65;;;24.85;;
19436;SDS011;9854;50.968;4.168;2023-01-28T08:10:46;27.37;;;24.57;;
19436;SDS011;9854;50.968;4.168;2023-01-28T08:13:12;25.43;;;22.73;;
19436;SDS011;9854;50.968;4.168;2023-01-28T08:15:39;25.70;;;23.00;;
19436;SDS011;9854;50.968;4.168;2023-01-28T08:18:06;25.63;;;22.93;;
19436;SDS011;9854;50.968;4.168;2023-01-28T08:20:34;26.10;;;23.40;;
19436;SDS011;9854;50.968;4.168;2023-01-28T08:23:14;29.10;;;25.47;;
19436;SDS011;9854;50.968;4.168;2023-01-28T08:25:43;27.47;;;24.50;;
19436;SDS011;9854;50.968;4.168;2023-01-28T08:28:10;27.20;;;24.23;;
19436;SDS011;9854;50.968;4.168;2023-01-28T08:30:36;28.13;;;25.13;;
19436;SDS011;9854;50.968;4.168;2023-01-28T08:33:03;29.37;;;26.17;;
19436;SDS011;9854;50.968;4.168;2023-01-28T08:35:29;30.53;;;27.23;;
19436;SDS011;9854;50.968;4.168;2023-01-28T08:37:57;30.27;;;26.97;;
19436;SDS011;9854;50.968;4.168;2023-01-28T08:40:24;31.90;;;27.57;;
19436;SDS011;9854;50.968;4.168;2023-01-28T08:42:50;32.53;;;29.03;;
19436;SDS011;9854;50.968;4.168;2023-01-28T08:45:17;31.63;;;28.20;;
19436;SDS011;9854;50.968;4.168;2023-01-28T08:47:47;32.67;;;29.17;;
19436;SDS011;9854;50.968;4.168;2023-01-28T08:50:16;34.03;;;29.53;;
19436;SDS011;9854;50.968;4.168;2023-01-28T08:52:42;35.20;;;31.40;;
19436;SDS011;9854;50.968;4.168;2023-01-28T08:55:09;31.33;;;28.17;;
19436;SDS011;9854;50.968;4.168;2023-01-28T08:57:35;33.73;;;29.47;;
19436;SDS011;9854;50.968;4.168;2023-01-28T09:00:01;37.43;;;30.57;;
19436;SDS011;9854;50.968;4.168;2023-01-28T09:02:27;33.03;;;29.43;;
19436;SDS011;9854;50.968;4.168;2023-01-28T09:04:53;33.00;;;29.47;;
19436;SDS011;9854;50.968;4.168;2023-01-28T09:07:18;29.73;;;26.47;;
19436;SDS011;9854;50.968;4.168;2023-01-28T09:09:44;29.98;;;26.85;;
19436;SDS011;9854;50.968;4.168;2023-01-28T09:12:10;28.53;;;25.43;;
19436;SDS011;9854;50.968;4.168;2023-01-28T09:14:35;28.03;;;25.07;;
19436;SDS011;9854;50.968;4.168;2023-01-28T09:17:03;27.57;;;24.57;;
19436;SDS011;9854;50.968;4.168;2023-01-28T09:19:29;27.13;;;24.27;;
19436;SDS011;9854;50.968;4.168;2023-01-28T09:21:54;26.13;;;23.30;;
19436;SDS011;9854;50.968;4.168;2023-01-28T09:24:20;27.93;;;23.30;;
19436;SDS011;9854;50.968;4.168;2023-01-28T09:26:49;31.97;;;24.10;;
19436;SDS011;9854;50.968;4.168;2023-01-28T09:29:14;29.97;;;24.43;;
19436;SDS011;9854;50.968;4.168;2023-01-28T09:31:40;24.80;;;22.10;;
19436;SDS011;9854;50.968;4.168;2023-01-28T09:34:07;23.80;;;21.10;;
19436;SDS011;9854;50.968;4.168;2023-01-28T09:36:33;23.97;;;21.33;;
19436;SDS011;9854;50.968;4.168;2023-01-28T09:38:59;25.90;;;23.13;;
19436;SDS011;9854;50.968;4.168;2023-01-28T09:41:27;25.67;;;22.53;;
19436;SDS011;9854;50.968;4.168;2023-01-28T09:46:32;24.43;;;21.57;;
19436;SDS011;9854;50.968;4.168;2023-01-28T09:49:01;23.57;;;21.00;;
19436;SDS011;9854;50.968;4.168;2023-01-28T09:51:53;22.50;;;20.10;;
19436;SDS011;9854;50.968;4.168;2023-01-28T09:54:28;24.23;;;20.87;;
19436;SDS011;9854;50.968;4.168;2023-01-28T09:57:13;23.20;;;20.77;;
19436;SDS011;9854;50.968;4.168;2023-01-28T09:59:48;22.13;;;19.97;;
19436;SDS011;9854;50.968;4.168;2023-01-28T10:07:37;21.75;;;19.63;;
19436;SDS011;9854;50.968;4.168;2023-01-28T10:10:15;21.03;;;18.93;;
19436;SDS011;9854;50.968;4.168;2023-01-28T10:18:13;21.53;;;19.33;;
19436;SDS011;9854;50.968;4.168;2023-01-28T10:20:42;21.83;;;19.67;;
19436;SDS011;9854;50.968;4.168;2023-01-28T10:23:22;21.37;;;18.77;;
19436;SDS011;9854;50.968;4.168;2023-01-28T10:25:51;21.87;;;19.60;;
19436;SDS011;9854;50.968;4.168;2023-01-28T10:28:20;22.27;;;20.03;;
19436;SDS011;9854;50.968;4.168;2023-01-28T10:30:54;22.10;;;19.80;;
19436;SDS011;9854;50.968;4.168;2023-01-28T10:35:51;23.85;;;21.40;;
19436;SDS011;9854;50.968;4.168;2023-01-28T10:38:19;22.33;;;20.03;;
19436;SDS011;9854;50.968;4.168;2023-01-28T10:40:48;24.07;;;21.10;;
19436;SDS011;9854;50.968;4.168;2023-01-28T10:43:24;21.57;;;19.30;;
19436;SDS011;9854;50.968;4.168;2023-01-28T10:48:36;20.23;;;18.23;;
19436;SDS011;9854;50.968;4.168;2023-01-28T10:51:06;22.20;;;19.90;;
19436;SDS011;9854;50.968;4.168;2023-01-28T10:53:36;22.77;;;20.48;;
19436;SDS011;9854;50.968;4.168;2023-01-28T10:56:07;20.70;;;18.50;;
19436;SDS011;9854;50.968;4.168;2023-01-28T10:58:47;20.30;;;18.23;;
19436;SDS011;9854;50.968;4.168;2023-01-28T11:01:42;19.13;;;17.23;;
19436;SDS011;9854;50.968;4.168;2023-01-28T11:04:14;22.60;;;17.77;;
19436;SDS011;9854;50.968;4.168;2023-01-28T11:06:42;21.97;;;17.20;;
19436;SDS011;9854;50.968;4.168;2023-01-28T11:09:20;23.07;;;18.10;;
19436;SDS011;9854;50.968;4.168;2023-01-28T11:11:51;17.80;;;15.90;;
19436;SDS011;9854;50.968;4.168;2023-01-28T11:14:20;22.30;;;17.80;;
19436;SDS011;9854;50.968;4.168;2023-01-28T11:16:47;20.43;;;17.43;;
19436;SDS011;9854;50.968;4.168;2023-01-28T11:19:14;18.70;;;16.90;;
19436;SDS011;9854;50.968;4.168;2023-01-28T11:21:48;19.13;;;17.13;;
19436;SDS011;9854;50.968;4.168;2023-01-28T11:24:20;18.53;;;16.67;;
19436;SDS011;9854;50.968;4.168;2023-01-28T11:26:51;18.10;;;16.40;;
19436;SDS011;9854;50.968;4.168;2023-01-28T11:29:31;20.30;;;17.47;;
19436;SDS011;9854;50.968;4.168;2023-01-28T11:31:58;17.93;;;16.13;;
19436;SDS011;9854;50.968;4.168;2023-01-28T11:34:29;16.10;;;14.50;;
19436;SDS011;9854;50.968;4.168;2023-01-28T11:37:01;14.27;;;12.97;;
19436;SDS011;9854;50.968;4.168;2023-01-28T11:39:28;13.37;;;12.07;;
19436;SDS011;9854;50.968;4.168;2023-01-28T11:42:02;13.40;;;12.20;;
19436;SDS011;9854;50.968;4.168;2023-01-28T11:44:35;13.83;;;12.63;;
19436;SDS011;9854;50.968;4.168;2023-01-28T11:47:21;13.47;;;11.60;;
19436;SDS011;9854;50.968;4.168;2023-01-28T12:01:18;10.30;;;9.40;;
19436;SDS011;9854;50.968;4.168;2023-01-28T12:03:54;10.37;;;9.53;;
19436;SDS011;9854;50.968;4.168;2023-01-28T12:18:17;13.20;;;12.00;;
19436;SDS011;9854;50.968;4.168;2023-01-28T12:21:03;11.40;;;10.50;;
19436;SDS011;9854;50.968;4.168;2023-01-28T12:26:30;11.53;;;10.60;;
19436;SDS011;9854;50.968;4.168;2023-01-28T12:29:20;12.00;;;10.90;;
19436;SDS011;9854;50.968;4.168;2023-01-28T12:43:10;13.13;;;11.57;;
19436;SDS011;9854;50.968;4.168;2023-01-28T12:45:38;11.67;;;10.70;;
19436;SDS011;9854;50.968;4.168;2023-01-28T12:51:14;11.70;;;10.53;;
19436;SDS011;9854;50.968;4.168;2023-01-28T12:54:05;12.60;;;10.87;;
19436;SDS011;9854;50.968;4.168;2023-01-28T12:56:48;11.33;;;10.20;;
19436;SDS011;9854;50.968;4.168;2023-01-28T12:59:19;11.03;;;9.93;;
19436;SDS011;9854;50.968;4.168;2023-01-28T13:01:48;13.87;;;10.43;;
19436;SDS011;9854;50.968;4.168;2023-01-28T13:07:24;11.40;;;10.40;;
19436;SDS011;9854;50.968;4.168;2023-01-28T13:10:04;11.43;;;10.40;;
19436;SDS011;9854;50.968;4.168;2023-01-28T13:12:39;11.20;;;10.30;;
19436;SDS011;9854;50.968;4.168;2023-01-28T13:15:10;13.13;;;10.50;;
19436;SDS011;9854;50.968;4.168;2023-01-28T13:17:38;11.33;;;10.23;;
19436;SDS011;9854;50.968;4.168;2023-01-28T13:20:16;11.33;;;10.23;;
19436;SDS011;9854;50.968;4.168;2023-01-28T13:22:42;11.73;;;10.40;;
19436;SDS011;9854;50.968;4.168;2023-01-28T13:25:20;11.37;;;10.37;;
19436;SDS011;9854;50.968;4.168;2023-01-28T13:27:56;10.10;;;9.23;;
19436;SDS011;9854;50.968;4.168;2023-01-28T13:30:31;9.73;;;8.83;;
19436;SDS011;9854;50.968;4.168;2023-01-28T13:33:05;10.33;;;9.43;;
19436;SDS011;9854;50.968;4.168;2023-01-28T13:35:52;12.23;;;10.20;;
19436;SDS011;9854;50.968;4.168;2023-01-28T13:38:19;11.40;;;10.40;;
19436;SDS011;9854;50.968;4.168;2023-01-28T13:40:58;12.00;;;10.97;;
19436;SDS011;9854;50.968;4.168;2023-01-28T13:45:57;10.50;;;9.60;;
19436;SDS011;9854;50.968;4.168;2023-01-28T13:48:32;10.83;;;9.80;;
19436;SDS011;9854;50.968;4.168;2023-01-28T13:51:31;10.53;;;9.63;;
19436;SDS011;9854;50.968;4.168;2023-01-28T14:02:19;11.83;;;10.77;;
19436;SDS011;9854;50.968;4.168;2023-01-28T14:05:29;12.63;;;11.43;;
19436;SDS011;9854;50.968;4.168;2023-01-28T14:20:02;12.97;;;11.77;;
19436;SDS011;9854;50.968;4.168;2023-01-28T14:22:29;13.73;;;12.43;;
19436;SDS011;9854;50.968;4.168;2023-01-28T14:24:55;13.97;;;12.37;;
19436;SDS011;9854;50.968;4.168;2023-01-28T14:27:26;15.97;;;14.27;;
19436;SDS011;9854;50.968;4.168;2023-01-28T14:30:02;13.93;;;12.57;;
19436;SDS011;9854;50.968;4.168;2023-01-28T14:32:29;14.97;;;13.43;;
19436;SDS011;9854;50.968;4.168;2023-01-28T14:34:57;14.00;;;12.70;;
19436;SDS011;9854;50.968;4.168;2023-01-28T14:37:29;15.47;;;13.87;;
19436;SDS011;9854;50.968;4.168;2023-01-28T14:42:23;14.40;;;13.00;;
19436;SDS011;9854;50.968;4.168;2023-01-28T14:45:10;14.10;;;12.70;;
19436;SDS011;9854;50.968;4.168;2023-01-28T14:47:47;13.53;;;12.13;;
19436;SDS011;9854;50.968;4.168;2023-01-28T14:56:15;17.27;;;13.60;;
19436;SDS011;9854;50.968;4.168;2023-01-28T14:58:59;16.67;;;13.73;;
19436;SDS011;9854;50.968;4.168;2023-01-28T15:01:30;15.27;;;13.63;;
19436;SDS011;9854;50.968;4.168;2023-01-28T15:03:56;14.87;;;13.53;;
19436;SDS011;9854;50.968;4.168;2023-01-28T15:06:22;14.57;;;13.20;;
19436;SDS011;9854;50.968;4.168;2023-01-28T15:08:53;14.13;;;12.80;;
19436;SDS011;9854;50.968;4.168;2023-01-28T15:11:30;13.67;;;12.23;;
19436;SDS011;9854;50.968;4.168;2023-01-28T15:13:57;12.97;;;11.80;;
19436;SDS011;9854;50.968;4.168;2023-01-28T15:16:24;14.07;;;12.70;;
19436;SDS011;9854;50.968;4.168;2023-01-28T15:18:59;13.50;;;12.20;;
19436;SDS011;9854;50.968;4.168;2023-01-28T15:21:26;13.70;;;12.40;;
19436;SDS011;9854;50.968;4.168;2023-01-28T15:23:55;13.70;;;12.30;;
19436;SDS011;9854;50.968;4.168;2023-01-28T15:26:23;15.47;;;12.37;;
19436;SDS011;9854;50.968;4.168;2023-01-28T15:28:59;17.47;;;13.10;;
19436;SDS011;9854;50.968;4.168;2023-01-28T15:31:29;14.63;;;13.23;;
19436;SDS011;9854;50.968;4.168;2023-01-28T15:33:57;14.10;;;12.70;;
19436;SDS011;9854;50.968;4.168;2023-01-28T15:36:24;13.50;;;12.20;;
19436;SDS011;9854;50.968;4.168;2023-01-28T15:38:51;15.27;;;12.23;;
19436;SDS011;9854;50.968;4.168;2023-01-28T15:41:17;13.30;;;12.03;;
19436;SDS011;9854;50.968;4.168;2023-01-28T15:43:46;13.73;;;12.53;;
19436;SDS011;9854;50.968;4.168;2023-01-28T15:46:14;13.40;;;12.20;;
19436;SDS011;9854;50.968;4.168;2023-01-28T15:48:41;14.93;;;12.20;;
19436;SDS011;9854;50.968;4.168;2023-01-28T15:51:17;13.27;;;12.07;;
19436;SDS011;9854;50.968;4.168;2023-01-28T15:53:49;14.83;;;13.30;;
19436;SDS011;9854;50.968;4.168;2023-01-28T15:56:41;14.20;;;12.80;;
19436;SDS011;9854;50.968;4.168;2023-01-28T16:01:34;13.90;;;12.60;;
19436;SDS011;9854;50.968;4.168;2023-01-28T16:04:01;16.37;;;12.97;;
19436;SDS011;9854;50.968;4.168;2023-01-28T16:06:33;14.63;;;13.23;;
19436;SDS011;9854;50.968;4.168;2023-01-28T16:09:03;19.23;;;14.07;;
19436;SDS011;9854;50.968;4.168;2023-01-28T16:11:37;14.00;;;12.80;;
19436;SDS011;9854;50.968;4.168;2023-01-28T16:14:22;14.97;;;13.57;;
19436;SDS011;9854;50.968;4.168;2023-01-28T16:16:50;16.07;;;13.73;;
19436;SDS011;9854;50.968;4.168;2023-01-28T16:19:37;17.10;;;15.40;;
19436;SDS011;9854;50.968;4.168;2023-01-28T16:22:05;17.97;;;14.60;;
19436;SDS011;9854;50.968;4.168;2023-01-28T16:24:33;15.53;;;13.93;;
19436;SDS011;9854;50.968;4.168;2023-01-28T16:27:17;16.07;;;14.37;;
19436;SDS011;9854;50.968;4.168;2023-01-28T16:29:44;15.37;;;13.93;;
19436;SDS011;9854;50.968;4.168;2023-01-28T16:32:24;15.63;;;14.03;;
19436;SDS011;9854;50.968;4.168;2023-01-28T16:34:53;15.87;;;14.37;;
19436;SDS011;9854;50.968;4.168;2023-01-28T16:37:18;16.80;;;15.20;;
19436;SDS011;9854;50.968;4.168;2023-01-28T16:39:44;18.47;;;15.47;;
19436;SDS011;9854;50.968;4.168;2023-01-28T16:42:09;17.23;;;15.53;;
19436;SDS011;9854;50.968;4.168;2023-01-28T16:44:35;17.87;;;16.03;;
19436;SDS011;9854;50.968;4.168;2023-01-28T16:47:01;21.00;;;17.17;;
19436;SDS011;9854;50.968;4.168;2023-01-28T16:49:28;35.60;;;25.47;;
19436;SDS011;9854;50.968;4.168;2023-01-28T16:51:54;51.93;;;35.67;;